Time;durP1;ratioP1;P1;durP2;ratioP2;P2;SDS_P1;SDS_P2;PMS_P1;PMS_P2;Temp;Humidity;BMP_temperature;BMP_pressure;BME280_temperature;BME280_humidity;BME280_pressure;Samples;Min_cycle;Max_cycle;Signal;HPM_P1;HPM_P2
2022/05/21 00:01:38;;;;;;;2.03;1.00;;;24.80;42.30;;;;;;5141996;27;20015;-42
2022/05/21 00:04:05;;;;;;;1.98;1.10;;;24.80;42.20;;;;;;5123821;27;20051;-41
2022/05/21 00:06:31;;;;;;;1.30;1.00;;;24.80;42.20;;;;;;5142297;27;20048;-42
2022/05/21 00:08:56;;;;;;;1.77;1.05;;;24.80;42.20;;;;;;5141611;27;20401;-40
2022/05/21 00:11:22;;;;;;;2.00;1.00;;;24.80;42.20;;;;;;5141469;27;20050;-40
2022/05/21 00:13:48;;;;;;;1.70;1.00;;;24.80;42.30;;;;;;5141705;27;20023;-42
2022/05/21 00:16:15;;;;;;;1.52;0.98;;;24.80;42.10;;;;;;5141381;27;20015;-41
2022/05/21 00:18:41;;;;;;;1.30;0.98;;;24.80;42.20;;;;;;5142064;27;20042;-41
2022/05/21 00:21:07;;;;;;;2.60;1.10;;;24.80;42.20;;;;;;5142128;27;20048;-42
2022/05/21 00:23:34;;;;;;;1.98;0.90;;;24.80;42.30;;;;;;5141804;27;20648;-44
2022/05/21 00:26:00;;;;;;;2.10;1.08;;;24.80;42.20;;;;;;5139909;27;20011;-41
2022/05/21 00:28:26;;;;;;;1.85;1.00;;;24.80;42.20;;;;;;5141630;27;20458;-40
2022/05/21 00:30:51;;;;;;;1.50;0.90;;;24.80;42.20;;;;;;5141635;27;20543;-43
2022/05/21 00:33:17;;;;;;;2.03;0.90;;;24.80;42.20;;;;;;5141011;27;20030;-40
2022/05/21 00:35:43;;;;;;;2.25;1.00;;;24.80;42.20;;;;;;5141426;27;20015;-42
2022/05/21 00:38:09;;;;;;;2.00;0.90;;;24.80;42.10;;;;;;5141124;27;20019;-39
2022/05/21 00:40:36;;;;;;;1.63;0.90;;;24.80;42.20;;;;;;5140653;27;20508;-43
2022/05/21 00:43:02;;;;;;;1.95;0.90;;;24.70;42.20;;;;;;5140438;27;20033;-43
2022/05/21 00:45:30;;;;;;;2.60;0.98;;;24.80;42.10;;;;;;5140137;27;20012;-42
2022/05/21 00:47:56;;;;;;;2.28;0.90;;;24.70;42.10;;;;;;5141852;27;20104;-45
2022/05/21 00:50:24;;;;;;;2.90;1.08;;;24.70;42.20;;;;;;5141767;27;20038;-42
2022/05/21 00:52:50;;;;;;;1.83;0.88;;;24.70;42.20;;;;;;5140062;27;20042;-42
2022/05/21 00:55:23;;;;;;;1.92;0.80;;;24.70;42.10;;;;;;5141318;27;20454;-43
2022/05/21 00:59:47;;;;;;;1.60;0.82;;;24.70;42.20;;;;;;5140922;27;20026;-42
2022/05/21 01:00:39;;;;;;;2.63;1.20;;;24.70;42.10;;;;;;5141556;27;20039;-42
2022/05/21 01:03:06;;;;;;;2.97;1.05;;;24.70;42.10;;;;;;5123193;27;20102;-41
2022/05/21 01:05:32;;;;;;;1.98;1.10;;;24.70;42.10;;;;;;5122861;27;20019;-43
2022/05/21 01:08:00;;;;;;;3.72;1.33;;;24.70;42.20;;;;;;5105274;27;20497;-43
2022/05/21 01:10:27;;;;;;;2.05;0.90;;;24.70;42.10;;;;;;5121834;27;20016;-43
2022/05/21 01:12:53;;;;;;;3.55;0.80;;;24.70;42.20;;;;;;5122806;27;20042;-41
2022/05/21 01:15:22;;;;;;;1.00;0.70;;;24.70;42.20;;;;;;5121529;27;20007;-40
2022/05/21 01:17:48;;;;;;;1.05;0.70;;;24.60;42.10;;;;;;5138359;27;20047;-44
2022/05/21 01:20:18;;;;;;;2.00;1.10;;;24.70;42.10;;;;;;5139770;27;20019;-40
2022/05/21 01:22:53;;;;;;;2.70;1.00;;;24.70;42.10;;;;;;5122118;27;20039;-42
2022/05/21 01:25:24;;;;;;;1.98;0.90;;;24.70;42.10;;;;;;5141008;27;20011;-44
2022/05/21 01:27:51;;;;;;;2.70;1.10;;;24.70;42.10;;;;;;5140758;27;20481;-42
2022/05/21 01:30:19;;;;;;;2.00;0.80;;;24.70;42.10;;;;;;5140310;27;20015;-41
2022/05/21 01:32:46;;;;;;;2.08;1.13;;;24.70;42.10;;;;;;5140950;27;20050;-42
2022/05/21 01:35:12;;;;;;;3.78;1.13;;;24.60;42.00;;;;;;5139542;27;20020;-43
2022/05/21 01:37:39;;;;;;;1.73;0.90;;;24.70;42.00;;;;;;5121919;28;20113;-42
2022/05/21 01:40:07;;;;;;;2.42;0.90;;;24.60;42.00;;;;;;5138473;28;20023;-42
2022/05/21 01:42:33;;;;;;;2.78;1.00;;;24.60;42.10;;;;;;5138894;28;20023;-44
2022/05/21 01:44:59;;;;;;;3.42;1.10;;;24.60;42.10;;;;;;5138934;28;20011;-41
2022/05/21 01:47:25;;;;;;;3.13;1.08;;;24.60;42.10;;;;;;5139043;28;20447;-40
2022/05/21 01:49:51;;;;;;;3.72;1.08;;;24.60;42.10;;;;;;5140957;28;20447;-41
2022/05/21 01:52:17;;;;;;;2.35;0.90;;;24.60;42.10;;;;;;5140269;27;20047;-41
2022/05/21 01:54:43;;;;;;;1.50;0.80;;;24.60;42.10;;;;;;5140038;28;20027;-39
2022/05/21 01:57:09;;;;;;;2.22;0.80;;;24.70;42.00;;;;;;5141563;28;20030;-40
2022/05/21 01:59:35;;;;;;;1.83;0.80;;;24.60;42.10;;;;;;5141165;28;20047;-40
2022/05/21 02:02:02;;;;;;;2.90;1.10;;;24.60;42.00;;;;;;5140244;27;20007;-43
2022/05/21 02:04:28;;;;;;;2.67;0.90;;;24.60;42.00;;;;;;5138819;28;20020;-42
2022/05/21 02:06:54;;;;;;;2.25;1.08;;;24.60;42.00;;;;;;5137719;28;20435;-40
2022/05/21 02:09:19;;;;;;;2.42;0.80;;;24.60;42.10;;;;;;5121257;28;20023;-41
2022/05/21 02:11:45;;;;;;;2.38;0.98;;;24.60;42.10;;;;;;5140646;28;20373;-41
2022/05/21 02:14:13;;;;;;;0.93;0.80;;;24.60;42.00;;;;;;5121462;28;20492;-42
2022/05/21 02:16:39;;;;;;;1.75;0.90;;;24.60;42.10;;;;;;5140118;27;20011;-41
2022/05/21 02:19:06;;;;;;;1.83;0.90;;;24.50;42.00;;;;;;5140374;28;20019;-41
2022/05/21 02:21:33;;;;;;;2.00;1.00;;;24.60;42.00;;;;;;5137616;28;20562;-44
2022/05/21 02:23:59;;;;;;;1.77;0.93;;;24.50;42.00;;;;;;5137588;28;20064;-42
2022/05/21 02:26:25;;;;;;;3.15;1.00;;;24.60;42.00;;;;;;5137033;28;20015;-41
2022/05/21 02:28:50;;;;;;;3.00;1.10;;;24.60;42.10;;;;;;5138614;28;20011;-44
2022/05/21 02:31:16;;;;;;;3.08;1.00;;;24.50;42.00;;;;;;5119433;28;20099;-40
2022/05/21 02:33:43;;;;;;;2.35;1.00;;;24.50;42.10;;;;;;5119093;28;20478;-41
2022/05/21 02:36:09;;;;;;;2.22;0.80;;;24.50;42.10;;;;;;5139931;27;20015;-41
2022/05/21 02:41:19;;;;;;;2.00;0.90;;;24.60;42.10;;;;;;5142760;27;20044;-44
2022/05/21 02:43:46;;;;;;;3.67;0.98;;;24.50;42.00;;;;;;5141764;27;20011;-43
2022/05/21 02:46:12;;;;;;;1.50;0.90;;;24.50;42.00;;;;;;5142747;27;20022;-40
2022/05/21 02:48:38;;;;;;;2.80;1.13;;;24.50;42.10;;;;;;5142754;27;20092;-40
2022/05/21 02:51:04;;;;;;;2.63;0.82;;;24.50;42.00;;;;;;5142686;27;20046;-42
2022/05/21 02:53:30;;;;;;;1.95;0.80;;;24.50;41.90;;;;;;5142361;27;20023;-40
2022/05/21 02:55:57;;;;;;;3.13;1.20;;;24.50;42.10;;;;;;5142436;27;20015;-42
2022/05/21 02:58:23;;;;;;;2.53;1.00;;;24.50;42.00;;;;;;5142626;27;20388;-40
2022/05/21 03:00:49;;;;;;;1.67;0.90;;;24.50;42.00;;;;;;5142984;27;20038;-41
2022/05/21 03:03:15;;;;;;;4.50;1.00;;;24.50;42.00;;;;;;5142441;27;20028;-41
2022/05/21 03:05:42;;;;;;;3.97;1.10;;;24.50;42.10;;;;;;5143220;27;20015;-42
2022/05/21 03:10:53;;;;;;;2.65;0.90;;;24.50;42.10;;;;;;5143121;27;20032;-40
2022/05/21 03:13:18;;;;;;;1.77;0.93;;;24.50;42.10;;;;;;5143333;27;20020;-41
2022/05/21 03:15:45;;;;;;;3.35;0.90;;;24.50;42.20;;;;;;5142874;27;20095;-42
2022/05/21 03:18:11;;;;;;;2.55;0.90;;;24.50;42.10;;;;;;5139833;27;20027;-42
2022/05/21 03:20:37;;;;;;;3.47;1.00;;;24.50;42.20;;;;;;5122464;27;20014;-39
2022/05/21 03:23:03;;;;;;;2.85;1.00;;;24.40;42.80;;;;;;5138805;27;20019;-41
2022/05/21 03:25:29;;;;;;;2.33;0.85;;;24.40;42.20;;;;;;5139509;27;20011;-42
2022/05/21 03:27:55;;;;;;;2.95;1.08;;;24.50;42.20;;;;;;5138440;27;20050;-40
2022/05/21 03:30:23;;;;;;;2.20;0.90;;;24.50;42.20;;;;;;5121310;27;20031;-41
2022/05/21 03:32:48;;;;;;;3.20;0.82;;;24.40;42.20;;;;;;5139510;27;20025;-42
2022/05/21 03:35:16;;;;;;;3.92;0.88;;;24.40;42.20;;;;;;5139466;27;20022;-41
2022/05/21 03:37:42;;;;;;;2.65;0.93;;;24.40;42.20;;;;;;5139673;27;20088;-41
2022/05/21 03:40:09;;;;;;;2.63;1.10;;;24.40;42.20;;;;;;5137791;27;20003;-42
2022/05/21 03:42:36;;;;;;;3.47;1.00;;;24.40;42.30;;;;;;5139779;27;20015;-40
2022/05/21 03:45:02;;;;;;;2.83;1.00;;;24.40;42.30;;;;;;5140177;27;20062;-41
2022/05/21 03:47:28;;;;;;;2.83;0.98;;;24.40;42.20;;;;;;5140727;27;20007;-41
2022/05/21 03:49:54;;;;;;;4.00;1.25;;;24.40;42.30;;;;;;5141971;27;20019;-40
2022/05/21 03:52:20;;;;;;;4.13;1.30;;;24.40;42.30;;;;;;5140501;27;20030;-40
2022/05/21 03:54:46;;;;;;;2.03;1.08;;;24.40;42.30;;;;;;5142403;27;20019;-41
2022/05/21 03:57:14;;;;;;;1.92;0.82;;;24.40;42.20;;;;;;5140708;27;20055;-40
2022/05/21 03:59:43;;;;;;;2.92;1.00;;;24.40;42.20;;;;;;5141029;27;20019;-45
2022/05/21 04:02:09;;;;;;;2.75;1.00;;;24.40;42.30;;;;;;5141223;27;20016;-42
2022/05/21 04:04:35;;;;;;;3.78;0.90;;;24.40;42.30;;;;;;5141863;27;20063;-44
2022/05/21 04:07:01;;;;;;;2.28;0.95;;;24.40;42.30;;;;;;5139448;27;20019;-41
2022/05/21 04:09:28;;;;;;;4.25;1.30;;;24.40;42.40;;;;;;5138743;27;20029;-41
2022/05/21 04:11:55;;;;;;;3.08;1.10;;;24.40;42.40;;;;;;5139348;27;20011;-40
2022/05/21 04:14:27;;;;;;;1.98;0.80;;;24.40;42.40;;;;;;5140306;27;20088;-40
2022/05/21 04:16:53;;;;;;;3.10;1.05;;;24.40;42.20;;;;;;5139886;27;20015;-42
2022/05/21 04:19:19;;;;;;;4.70;1.15;;;24.40;42.30;;;;;;5139511;27;20026;-40
2022/05/21 04:21:45;;;;;;;3.70;1.15;;;24.40;42.30;;;;;;5140345;27;20047;-43
2022/05/21 04:24:11;;;;;;;3.85;1.25;;;24.40;42.30;;;;;;5140658;27;20042;-45
2022/05/21 04:26:37;;;;;;;4.32;1.10;;;24.40;42.30;;;;;;5139740;27;20354;-41
2022/05/21 04:29:04;;;;;;;3.17;1.10;;;24.40;42.30;;;;;;5138304;27;20023;-42
2022/05/21 04:31:30;;;;;;;4.60;1.40;;;24.40;42.40;;;;;;5140067;27;20026;-44
2022/05/21 04:33:56;;;;;;;3.13;1.00;;;24.40;42.40;;;;;;5138831;27;20027;-42
2022/05/21 04:36:22;;;;;;;3.88;1.10;;;24.40;42.30;;;;;;5139728;27;20469;-43
2022/05/21 04:38:50;;;;;;;3.78;1.20;;;24.40;42.40;;;;;;5139374;27;20035;-40
2022/05/21 04:41:16;;;;;;;2.88;1.33;;;24.40;42.20;;;;;;5139116;27;20039;-45
2022/05/21 04:43:42;;;;;;;3.50;0.93;;;24.50;42.20;;;;;;5139893;27;20016;-41
2022/05/21 04:46:09;;;;;;;4.13;1.50;;;24.60;42.10;;;;;;5139633;27;20007;-40
2022/05/21 04:48:34;;;;;;;4.28;1.23;;;24.50;42.10;;;;;;5138939;27;20026;-41
2022/05/21 04:51:02;;;;;;;3.38;0.90;;;24.50;42.10;;;;;;5139482;27;20015;-42
2022/05/21 04:53:28;;;;;;;3.95;1.15;;;24.50;42.10;;;;;;5139362;27;20099;-41
2022/05/21 04:55:54;;;;;;;4.47;1.15;;;24.50;42.00;;;;;;5139407;27;20035;-40
2022/05/21 04:58:20;;;;;;;3.25;0.90;;;24.60;42.10;;;;;;5137390;27;20045;-43
2022/05/21 05:00:46;;;;;;;2.60;1.10;;;24.60;42.00;;;;;;5137456;27;20358;-41
2022/05/21 05:03:13;;;;;;;4.18;1.15;;;24.70;42.00;;;;;;5138669;27;20060;-40
2022/05/21 05:05:40;;;;;;;4.60;1.17;;;24.80;41.80;;;;;;5137372;27;20011;-42
2022/05/21 05:08:06;;;;;;;2.60;1.00;;;24.90;41.40;;;;;;5137325;27;20018;-41
2022/05/21 05:10:32;;;;;;;3.63;1.08;;;25.00;41.70;;;;;;5137597;27;20023;-44
2022/05/21 05:13:00;;;;;;;2.95;0.98;;;25.10;41.00;;;;;;5138513;27;20015;-40
2022/05/21 05:15:26;;;;;;;3.13;1.00;;;25.20;40.80;;;;;;5138591;27;20016;-41
2022/05/21 05:18:01;;;;;;;2.85;0.98;;;25.20;41.00;;;;;;5138734;27;20016;-41
2022/05/21 05:20:27;;;;;;;3.00;1.17;;;25.30;40.90;;;;;;5138832;27;20445;-42
2022/05/21 05:22:53;;;;;;;3.25;1.10;;;25.30;40.70;;;;;;5137545;27;20039;-43
2022/05/21 05:25:19;;;;;;;2.50;0.93;;;25.40;40.90;;;;;;5137434;27;20483;-41
2022/05/21 05:27:48;;;;;;;2.45;0.93;;;25.40;40.80;;;;;;5136965;27;20071;-41
2022/05/21 05:30:14;;;;;;;4.00;1.20;;;25.40;40.80;;;;;;5138025;27;20042;-41
2022/05/21 05:32:41;;;;;;;2.75;1.10;;;25.40;40.80;;;;;;5137641;27;20461;-40
2022/05/21 05:35:07;;;;;;;3.63;1.08;;;25.40;40.80;;;;;;5137528;27;20019;-42
2022/05/21 05:37:33;;;;;;;3.00;1.00;;;25.50;40.70;;;;;;5137654;27;20106;-44
2022/05/21 05:40:00;;;;;;;3.88;1.10;;;25.50;40.70;;;;;;5120216;28;20075;-41
2022/05/21 05:42:25;;;;;;;4.30;1.15;;;25.50;40.60;;;;;;5137333;28;20019;-42
2022/05/21 05:44:52;;;;;;;3.10;1.05;;;25.60;40.60;;;;;;5138409;27;20075;-42
2022/05/21 05:47:17;;;;;;;2.97;1.05;;;25.60;40.50;;;;;;5138949;28;20426;-42
2022/05/21 05:49:44;;;;;;;3.08;1.00;;;25.60;40.40;;;;;;5138564;28;20026;-43
2022/05/21 05:52:09;;;;;;;2.65;1.10;;;25.80;40.30;;;;;;5136866;28;20023;-46
2022/05/21 05:54:35;;;;;;;3.70;1.20;;;25.90;40.10;;;;;;5137336;28;20102;-40
2022/05/21 05:57:02;;;;;;;3.50;1.25;;;26.10;39.90;;;;;;5138662;27;20015;-43
2022/05/21 06:04:58;;;;;;;3.35;1.10;;;26.40;39.10;;;;;;5137739;28;20049;-41
2022/05/21 06:07:24;;;;;;;4.82;1.45;;;26.40;39.00;;;;;;5138172;28;20050;-42
2022/05/21 06:09:50;;;;;;;4.28;1.13;;;26.50;38.80;;;;;;5139254;27;20454;-40
2022/05/21 06:12:16;;;;;;;3.53;1.35;;;26.60;38.80;;;;;;5142198;27;20030;-46
2022/05/21 06:14:45;;;;;;;4.38;1.30;;;26.70;38.60;;;;;;5143197;27;20015;-45
2022/05/21 06:17:16;;;;;;;2.40;0.90;;;26.80;38.50;;;;;;5142164;27;20492;-41
2022/05/21 06:19:41;;;;;;;3.20;1.00;;;26.80;38.40;;;;;;5123124;27;20046;-42
2022/05/21 06:22:07;;;;;;;2.72;1.02;;;26.80;38.40;;;;;;5138047;27;20099;-40
2022/05/21 06:24:35;;;;;;;3.45;1.20;;;26.80;38.40;;;;;;5141022;27;20008;-40
2022/05/21 06:27:00;;;;;;;5.03;1.13;;;26.80;38.40;;;;;;5139445;27;20541;-40
2022/05/21 06:29:26;;;;;;;3.17;1.00;;;26.80;38.40;;;;;;5141685;27;20026;-41
2022/05/21 06:31:52;;;;;;;4.00;1.40;;;26.90;38.40;;;;;;5122290;27;20030;-40
2022/05/21 06:34:18;;;;;;;3.90;1.20;;;26.90;38.30;;;;;;5141938;27;20046;-42
2022/05/21 06:36:45;;;;;;;3.63;1.25;;;26.90;38.30;;;;;;5139927;27;20043;-43
2022/05/21 06:39:11;;;;;;;3.40;1.13;;;27.00;38.80;;;;;;5141795;27;20065;-41
2022/05/21 06:41:37;;;;;;;4.53;1.15;;;26.90;38.30;;;;;;5124160;27;20007;-39
2022/05/21 06:44:03;;;;;;;3.88;1.40;;;26.90;38.30;;;;;;5141811;27;20019;-40
2022/05/21 06:46:29;;;;;;;2.35;0.90;;;26.90;38.40;;;;;;5140531;27;20102;-42
2022/05/21 06:48:55;;;;;;;3.58;1.27;;;26.90;38.40;;;;;;5140429;27;20493;-40
2022/05/21 06:51:20;;;;;;;3.28;1.20;;;26.90;38.50;;;;;;5142701;27;20076;-40
2022/05/21 06:53:47;;;;;;;3.90;1.55;;;26.90;38.30;;;;;;5143066;27;20012;-40
2022/05/21 06:56:15;;;;;;;4.10;1.42;;;26.90;38.50;;;;;;5142083;27;20027;-42
2022/05/21 06:58:42;;;;;;;3.57;1.13;;;26.80;38.60;;;;;;5141968;27;20049;-43
2022/05/21 07:01:09;;;;;;;4.05;1.27;;;26.80;38.60;;;;;;5141246;27;20016;-44
2022/05/21 07:03:35;;;;;;;2.72;1.02;;;26.80;38.70;;;;;;5122830;27;20031;-38
2022/05/21 07:08:47;;;;;;;4.15;1.23;;;26.60;39.00;;;;;;5140549;27;20030;-39
2022/05/21 07:11:13;;;;;;;4.72;1.60;;;26.40;39.10;;;;;;5141080;27;20056;-39
2022/05/21 07:13:39;;;;;;;4.60;1.60;;;26.40;39.30;;;;;;5141937;27;20050;-41
2022/05/21 07:16:05;;;;;;;3.58;1.20;;;26.30;39.40;;;;;;5139929;27;20408;-42
2022/05/21 07:18:30;;;;;;;5.22;1.55;;;26.20;39.50;;;;;;5139673;27;20219;-40
2022/05/21 07:20:56;;;;;;;3.80;1.33;;;26.20;39.70;;;;;;5139810;27;20028;-39
2022/05/21 07:23:24;;;;;;;4.38;1.23;;;26.20;39.70;;;;;;5139367;27;20015;-40
2022/05/21 07:25:49;;;;;;;3.38;1.10;;;26.20;39.80;;;;;;5139715;27;20121;-39
2022/05/21 07:28:15;;;;;;;4.32;1.30;;;26.20;39.80;;;;;;5138264;27;20069;-42
2022/05/21 07:30:42;;;;;;;4.13;1.23;;;26.20;39.80;;;;;;5139402;27;20011;-39
2022/05/21 07:33:10;;;;;;;4.78;1.38;;;26.20;39.90;;;;;;5140031;27;20015;-40
2022/05/21 07:35:37;;;;;;;4.45;1.40;;;26.20;39.70;;;;;;5139978;27;20011;-39
2022/05/21 07:38:05;;;;;;;4.10;1.40;;;26.20;39.70;;;;;;5139406;27;20034;-44
2022/05/21 07:40:31;;;;;;;2.78;1.05;;;26.30;39.70;;;;;;5139624;27;20011;-40
2022/05/21 07:42:57;;;;;;;4.68;1.38;;;26.20;39.70;;;;;;5137549;27;20067;-41
2022/05/21 07:45:23;;;;;;;3.40;1.25;;;26.30;39.70;;;;;;5137124;27;20015;-40
2022/05/21 07:47:49;;;;;;;3.38;1.17;;;26.30;39.70;;;;;;5138697;27;20011;-39
2022/05/21 07:50:15;;;;;;;3.92;1.10;;;26.30;39.70;;;;;;5137225;27;20092;-39
2022/05/21 07:52:42;;;;;;;3.20;1.05;;;26.30;39.70;;;;;;5138973;27;20094;-40
2022/05/21 07:55:08;;;;;;;4.22;1.52;;;26.30;39.70;;;;;;5139486;27;20034;-39
2022/05/21 07:57:33;;;;;;;3.90;1.25;;;26.30;39.70;;;;;;5138617;27;20034;-41
2022/05/21 08:00:00;;;;;;;4.68;1.60;;;26.20;39.70;;;;;;5139068;27;20019;-40
2022/05/21 08:02:25;;;;;;;4.47;1.58;;;26.20;39.90;;;;;;5140783;27;20077;-45
2022/05/21 08:04:52;;;;;;;3.85;1.60;;;26.20;40.50;;;;;;5140146;27;20102;-39
2022/05/21 08:07:18;;;;;;;4.32;1.70;;;26.10;40.00;;;;;;5139702;27;20091;-40
2022/05/21 08:09:44;;;;;;;4.47;1.42;;;26.10;40.00;;;;;;5137265;27;20008;-40
2022/05/21 08:12:14;;;;;;;5.07;1.30;;;26.10;40.10;;;;;;5138973;27;20026;-42
2022/05/21 08:14:41;;;;;;;3.25;1.20;;;26.10;40.10;;;;;;5138776;27;20015;-41
2022/05/21 08:17:08;;;;;;;4.45;1.55;;;26.10;40.10;;;;;;5140135;27;20011;-40
2022/05/21 08:19:37;;;;;;;4.90;1.65;;;26.20;40.10;;;;;;5142763;27;20027;-42
2022/05/21 08:27:33;;;;;;;5.72;1.40;;;26.40;39.50;;;;;;5139636;27;20095;-43
2022/05/21 08:30:00;;;;;;;5.00;1.58;;;26.50;39.40;;;;;;5139120;27;20023;-41
2022/05/21 08:32:25;;;;;;;6.40;1.92;;;26.60;39.20;;;;;;5141109;27;20021;-42
2022/05/21 08:34:52;;;;;;;4.97;1.60;;;26.60;39.00;;;;;;5138873;27;20103;-42
2022/05/21 08:37:19;;;;;;;6.22;1.92;;;26.70;38.80;;;;;;5140144;27;20015;-42
2022/05/21 08:39:45;;;;;;;6.97;1.67;;;26.90;38.70;;;;;;5141098;27;20038;-42
2022/05/21 08:42:47;;;;;;;4.80;1.63;;;26.90;38.40;;;;;;5140738;27;20458;-39
2022/05/21 08:45:22;;;;;;;5.13;1.80;;;27.00;38.40;;;;;;5058488;28;20045;-40
2022/05/21 08:48:02;;;;;;;4.38;1.50;;;27.10;38.30;;;;;;5056952;28;20100;-41
2022/05/21 08:50:32;;;;;;;4.78;1.52;;;27.20;38.00;;;;;;5057173;28;20431;-41
2022/05/21 08:53:06;;;;;;;5.20;1.60;;;27.30;37.80;;;;;;5057654;28;20013;-41
2022/05/21 08:55:46;;;;;;;3.65;1.60;;;27.40;37.60;;;;;;5042482;28;20068;-41
2022/05/21 08:58:27;;;;;;;4.80;1.52;;;27.50;37.50;;;;;;5054947;28;20029;-40
2022/05/21 09:00:55;;;;;;;5.07;2.08;;;27.70;37.20;;;;;;5057121;28;20232;-39
2022/05/21 09:03:21;;;;;;;5.07;1.65;;;27.80;37.00;;;;;;5056970;28;20017;-41
2022/05/21 09:06:11;;;;;;;4.28;1.70;;;28.00;36.80;;;;;;5040384;28;20017;-43
2022/05/21 09:08:45;;;;;;;4.25;1.60;;;28.10;36.50;;;;;;5058349;28;20158;-40
2022/05/21 09:11:18;;;;;;;4.80;1.60;;;28.20;36.40;;;;;;5057254;28;20036;-40
2022/05/21 09:14:07;;;;;;;5.07;1.55;;;28.20;36.50;;;;;;5057800;28;20086;-41
2022/05/21 09:16:55;;;;;;;5.20;1.92;;;28.20;36.30;;;;;;5057022;28;20035;-42
2022/05/21 09:19:44;;;;;;;3.00;1.33;;;28.30;36.20;;;;;;5040717;28;20121;-41
2022/05/21 09:22:13;;;;;;;4.22;1.60;;;28.40;36.00;;;;;;5138653;27;20033;-42
2022/05/21 09:24:59;;;;;;;4.53;1.67;;;28.50;35.80;;;;;;5140301;27;20011;-40
2022/05/21 09:27:27;;;;;;;4.15;1.42;;;28.60;35.60;;;;;;5139183;27;20050;-43
2022/05/21 09:29:54;;;;;;;3.97;1.60;;;28.60;35.50;;;;;;5138964;27;20015;-44
2022/05/21 09:32:22;;;;;;;3.35;1.38;;;28.60;35.50;;;;;;5139424;27;20477;-41
2022/05/21 09:35:07;;;;;;;4.10;1.63;;;28.50;35.60;;;;;;5140071;27;20038;-44
2022/05/21 09:37:33;;;;;;;4.95;1.70;;;28.50;35.70;;;;;;5138657;27;20058;-43
2022/05/21 09:40:00;;;;;;;7.57;1.80;;;28.50;35.80;;;;;;5139532;27;20011;-40
2022/05/21 09:45:23;;;;;;;4.28;1.38;;;28.30;35.70;;;;;;5143102;27;20022;-47
2022/05/21 09:47:51;;;;;;;4.30;1.58;;;28.30;36.00;;;;;;5145113;27;20042;-42
2022/05/21 09:50:24;;;;;;;4.38;1.50;;;28.30;36.00;;;;;;5145261;27;20011;-42
2022/05/21 09:52:51;;;;;;;3.75;1.33;;;28.20;36.00;;;;;;5145512;27;20012;-45
2022/05/21 09:55:26;;;;;;;5.00;1.60;;;28.20;36.10;;;;;;5147096;27;20474;-46
2022/05/21 09:57:52;;;;;;;4.55;1.63;;;28.10;36.10;;;;;;5146798;27;20027;-42
2022/05/21 10:00:35;;;;;;;3.15;1.30;;;28.10;36.20;;;;;;5145935;27;20038;-41
2022/05/21 10:03:03;;;;;;;3.22;1.38;;;28.00;36.20;;;;;;5147902;27;20047;-45
2022/05/21 10:05:40;;;;;;;4.38;1.58;;;28.00;36.30;;;;;;5146510;27;20015;-45
2022/05/21 10:10:59;;;;;;;3.90;1.38;;;27.90;37.00;;;;;;5148509;27;20049;-42
2022/05/21 10:13:37;;;;;;;4.60;1.58;;;27.90;36.50;;;;;;5148389;27;20042;-44
2022/05/21 10:16:23;;;;;;;4.25;1.50;;;27.90;36.50;;;;;;5146851;27;20076;-43
2022/05/21 10:19:11;;;;;;;4.00;1.52;;;27.90;36.50;;;;;;5144996;27;20047;-43
2022/05/21 10:22:05;;;;;;;6.40;1.98;;;27.90;36.40;;;;;;5146249;27;20046;-41
2022/05/21 10:24:37;;;;;;;3.65;1.33;;;28.00;36.40;;;;;;5145213;27;20027;-42
2022/05/21 10:27:07;;;;;;;3.95;1.70;;;28.00;36.50;;;;;;5146211;27;20019;-42
2022/05/21 10:30:06;;;;;;;4.22;1.40;;;27.90;36.40;;;;;;5146529;27;20019;-43
2022/05/21 10:32:46;;;;;;;3.55;1.50;;;27.80;36.40;;;;;;5145006;27;20094;-44
2022/05/21 10:35:49;;;;;;;3.58;1.38;;;27.80;36.60;;;;;;5145949;27;20073;-43
2022/05/21 10:38:38;;;;;;;5.30;1.55;;;27.80;36.60;;;;;;5070237;27;20047;-44
2022/05/21 10:41:19;;;;;;;5.22;1.98;;;27.70;36.50;;;;;;5145461;27;20115;-41
2022/05/21 10:44:01;;;;;;;4.88;1.63;;;27.70;36.50;;;;;;5143909;27;20007;-43
2022/05/21 10:46:51;;;;;;;3.80;1.40;;;27.60;36.50;;;;;;5143025;27;20035;-43
2022/05/21 10:49:26;;;;;;;3.58;1.55;;;27.60;36.60;;;;;;5142699;27;20578;-46
2022/05/21 10:52:09;;;;;;;4.72;1.50;;;27.60;36.60;;;;;;5143210;27;20028;-43
2022/05/21 10:54:51;;;;;;;3.63;1.52;;;27.60;36.60;;;;;;5144523;27;20015;-44
2022/05/21 10:57:38;;;;;;;4.00;1.65;;;27.60;36.70;;;;;;5139326;27;20030;-44
2022/05/21 11:00:23;;;;;;;3.05;1.27;;;27.50;36.70;;;;;;5141063;27;20115;-42
2022/05/21 11:03:28;;;;;;;5.60;1.83;;;27.60;36.60;;;;;;5139717;27;20034;-44
2022/05/21 11:06:00;;;;;;;4.15;1.58;;;27.60;36.60;;;;;;5139217;27;20008;-40
2022/05/21 11:08:44;;;;;;;5.18;1.90;;;27.60;36.50;;;;;;5140069;27;20012;-45
2022/05/21 11:11:31;;;;;;;5.72;1.70;;;27.50;36.50;;;;;;5138694;27;20350;-40
2022/05/21 11:14:11;;;;;;;4.47;1.55;;;27.40;36.50;;;;;;5139612;27;20018;-44
2022/05/21 11:16:43;;;;;;;7.00;2.08;;;27.50;36.50;;;;;;5138730;27;20023;-40
2022/05/21 11:19:37;;;;;;;3.15;1.50;;;27.40;36.40;;;;;;5139647;27;20019;-44
2022/05/21 11:22:07;;;;;;;4.75;1.55;;;27.40;36.30;;;;;;5126928;27;20090;-42
2022/05/21 11:24:45;;;;;;;4.65;1.80;;;27.40;36.30;;;;;;5141072;27;20103;-41
2022/05/21 11:27:18;;;;;;;5.90;1.80;;;27.40;36.30;;;;;;5139006;27;20015;-44
2022/05/21 11:29:44;;;;;;;4.63;1.80;;;27.40;36.30;;;;;;5139229;27;20032;-44
2022/05/21 11:37:55;;;;;;;3.72;1.50;;;27.30;36.30;;;;;;5137960;27;20081;-40
2022/05/21 11:40:49;;;;;;;4.57;1.60;;;27.30;36.40;;;;;;5138060;27;20038;-40
2022/05/21 11:43:18;;;;;;;3.35;1.60;;;27.30;36.20;;;;;;5139718;27;20098;-44
2022/05/21 11:46:01;;;;;;;3.53;1.58;;;27.20;36.20;;;;;;5139400;27;20011;-41
2022/05/21 11:48:28;;;;;;;4.05;1.65;;;27.20;36.10;;;;;;5139207;27;20015;-43
2022/05/21 11:51:24;;;;;;;4.38;1.35;;;27.10;36.20;;;;;;5140217;27;20023;-43
2022/05/21 11:53:51;;;;;;;4.18;1.50;;;27.10;36.20;;;;;;5139839;27;20019;-40
2022/05/21 11:56:17;;;;;;;5.95;1.70;;;27.10;36.10;;;;;;5139123;27;20018;-40
2022/05/21 11:59:06;;;;;;;3.55;1.50;;;27.20;36.10;;;;;;5139579;27;20032;-44
2022/05/21 12:01:53;;;;;;;4.28;1.50;;;27.10;36.10;;;;;;5129832;27;20023;-44
2022/05/21 12:04:24;;;;;;;4.85;1.60;;;27.10;36.10;;;;;;5141065;27;20019;-43
2022/05/21 12:06:50;;;;;;;4.32;1.42;;;27.10;36.20;;;;;;5140980;27;20015;-45
2022/05/21 12:09:27;;;;;;;3.67;1.55;;;27.00;36.20;;;;;;5104664;27;20571;-40
2022/05/21 12:12:21;;;;;;;3.80;1.70;;;27.00;36.20;;;;;;5139875;27;20084;-41
2022/05/21 12:14:50;;;;;;;4.65;1.70;;;27.00;36.20;;;;;;5138740;27;20011;-40
2022/05/21 12:17:57;;;;;;;3.75;1.42;;;26.90;36.10;;;;;;5139980;27;20016;-41
2022/05/21 12:20:42;;;;;;;3.45;1.40;;;26.90;36.10;;;;;;5139759;27;20023;-43
2022/05/21 12:23:12;;;;;;;3.45;1.17;;;26.90;36.20;;;;;;5139032;27;20012;-41
2022/05/21 12:25:44;;;;;;;3.78;1.23;;;26.90;36.20;;;;;;5139182;27;20011;-44
2022/05/21 12:28:11;;;;;;;3.45;1.30;;;26.80;36.10;;;;;;5139732;27;20034;-42
2022/05/21 12:30:37;;;;;;;4.68;1.60;;;26.90;36.20;;;;;;5139273;27;20090;-43
2022/05/21 12:33:06;;;;;;;3.50;1.30;;;26.90;36.10;;;;;;5140414;27;20090;-41
2022/05/21 12:35:40;;;;;;;4.28;1.60;;;26.80;36.10;;;;;;5141234;27;20023;-43
2022/05/21 12:38:15;;;;;;;4.85;1.70;;;26.80;36.10;;;;;;5140283;27;20080;-41
2022/05/21 12:40:46;;;;;;;5.63;1.95;;;26.80;36.00;;;;;;5138937;27;20011;-40
2022/05/21 12:43:13;;;;;;;4.55;1.65;;;26.80;36.10;;;;;;5140810;27;20015;-44
2022/05/21 12:45:49;;;;;;;4.88;1.30;;;26.80;36.10;;;;;;5141219;27;20027;-46
2022/05/21 12:48:32;;;;;;;4.15;1.50;;;26.80;36.10;;;;;;5140475;27;20023;-42
2022/05/21 12:50:59;;;;;;;4.28;1.30;;;26.80;36.10;;;;;;5139867;27;20011;-42
2022/05/21 12:53:27;;;;;;;3.70;1.10;;;26.80;36.10;;;;;;5121927;27;20027;-42
2022/05/21 12:56:19;;;;;;;4.30;1.40;;;26.80;36.00;;;;;;5139506;27;20012;-43
2022/05/21 12:58:46;;;;;;;3.60;1.40;;;26.70;35.90;;;;;;5138293;27;20090;-41
2022/05/21 13:01:24;;;;;;;3.45;1.30;;;26.80;35.90;;;;;;5138157;27;20015;-42
2022/05/21 13:03:49;;;;;;;4.88;1.30;;;26.70;35.90;;;;;;5137856;27;20027;-42
2022/05/21 13:06:22;;;;;;;2.33;1.10;;;26.70;35.90;;;;;;5136617;27;20373;-40
2022/05/21 13:08:48;;;;;;;3.25;1.20;;;26.70;36.00;;;;;;5136937;27;20076;-43
2022/05/21 13:11:19;;;;;;;3.70;1.30;;;26.70;35.90;;;;;;5137298;27;20031;-41
2022/05/21 13:13:48;;;;;;;4.00;1.20;;;26.70;35.90;;;;;;5137487;27;20018;-41
2022/05/21 13:16:23;;;;;;;3.80;1.27;;;26.70;35.70;;;;;;5138113;27;20019;-42
2022/05/21 13:18:51;;;;;;;2.40;0.90;;;26.70;35.70;;;;;;5119533;27;20043;-42
2022/05/21 13:21:41;;;;;;;3.53;1.30;;;26.70;35.80;;;;;;5137107;27;20489;-42
2022/05/21 13:24:07;;;;;;;3.40;1.27;;;26.70;35.80;;;;;;5138225;27;20249;-40
2022/05/21 13:26:34;;;;;;;4.55;1.42;;;26.70;35.80;;;;;;5138378;27;20072;-43
2022/05/21 13:29:18;;;;;;;3.50;1.20;;;26.70;35.70;;;;;;5138287;27;20026;-41
2022/05/21 13:31:44;;;;;;;3.65;1.40;;;26.70;35.60;;;;;;5119392;28;20030;-43
2022/05/21 13:34:15;;;;;;;5.55;1.33;;;26.70;35.50;;;;;;5119799;28;20102;-47